sensor_id;sensor_type;location;lat;lon;timestamp;pressure;altitude;pressure_sealevel;temperature;humidity
12178;BME280;6152;48.728;9.256;2024-03-29T00:01:24;95465.41;;;5.26;100.00
12178;BME280;6152;48.728;9.256;2024-03-29T00:03:51;95474.47;;;5.32;100.00
12178;BME280;6152;48.728;9.256;2024-03-29T00:06:19;95454.78;;;5.43;100.00
12178;BME280;6152;48.728;9.256;2024-03-29T00:08:45;95467.25;;;5.49;100.00
12178;BME280;6152;48.728;9.256;2024-03-29T00:11:11;95450.66;;;5.53;100.00
12178;BME280;6152;48.728;9.256;2024-03-29T00:13:37;95447.88;;;5.56;100.00
12178;BME280;6152;48.728;9.256;2024-03-29T00:16:04;95441.78;;;5.57;100.00
12178;BME280;6152;48.728;9.256;2024-03-29T00:18:30;95427.94;;;5.58;100.00
12178;BME280;6152;48.728;9.256;2024-03-29T00:20:56;95423.72;;;5.57;100.00
12178;BME280;6152;48.728;9.256;2024-03-29T00:23:22;95425.56;;;5.55;100.00
12178;BME280;6152;48.728;9.256;2024-03-29T00:25:49;95418.03;;;5.52;100.00
12178;BME280;6152;48.728;9.256;2024-03-29T00:28:16;95416.28;;;5.53;100.00
12178;BME280;6152;48.728;9.256;2024-03-29T00:30:42;95403.50;;;5.51;100.00
12178;BME280;6152;48.728;9.256;2024-03-29T00:33:08;95397.75;;;5.48;100.00
12178;BME280;6152;48.728;9.256;2024-03-29T00:35:34;95381.44;;;5.47;100.00
12178;BME280;6152;48.728;9.256;2024-03-29T00:38:00;95374.19;;;5.52;100.00
12178;BME280;6152;48.728;9.256;2024-03-29T00:40:26;95363.66;;;5.55;100.00
12178;BME280;6152;48.728;9.256;2024-03-29T00:42:52;95351.50;;;5.57;100.00
12178;BME280;6152;48.728;9.256;2024-03-29T00:45:18;95339.31;;;5.59;100.00
12178;BME280;6152;48.728;9.256;2024-03-29T00:47:44;95339.69;;;5.66;100.00
12178;BME280;6152;48.728;9.256;2024-03-29T00:50:10;95329.75;;;5.73;100.00
12178;BME280;6152;48.728;9.256;2024-03-29T00:52:37;95328.63;;;5.77;100.00
12178;BME280;6152;48.728;9.256;2024-03-29T00:55:03;95330.16;;;5.79;100.00
12178;BME280;6152;48.728;9.256;2024-03-29T00:57:30;95332.41;;;5.84;100.00
12178;BME280;6152;48.728;9.256;2024-03-29T00:59:57;95354.31;;;5.91;100.00
12178;BME280;6152;48.728;9.256;2024-03-29T01:02:23;95349.91;;;5.93;100.00
12178;BME280;6152;48.728;9.256;2024-03-29T01:04:50;95341.19;;;5.94;100.00
12178;BME280;6152;48.728;9.256;2024-03-29T01:07:16;95353.66;;;6.00;100.00
12178;BME280;6152;48.728;9.256;2024-03-29T01:09:43;95364.00;;;6.00;100.00
12178;BME280;6152;48.728;9.256;2024-03-29T01:12:10;95347.69;;;5.99;100.00
12178;BME280;6152;48.728;9.256;2024-03-29T01:14:36;95338.31;;;5.98;100.00
12178;BME280;6152;48.728;9.256;2024-03-29T01:17:03;95332.31;;;5.98;100.00
12178;BME280;6152;48.728;9.256;2024-03-29T01:19:29;95330.56;;;5.98;100.00
12178;BME280;6152;48.728;9.256;2024-03-29T01:21:55;95327.84;;;6.00;100.00
12178;BME280;6152;48.728;9.256;2024-03-29T01:24:21;95331.16;;;6.02;100.00
12178;BME280;6152;48.728;9.256;2024-03-29T01:26:47;95334.22;;;6.07;100.00
12178;BME280;6152;48.728;9.256;2024-03-29T01:29:13;95335.06;;;6.07;100.00
12178;BME280;6152;48.728;9.256;2024-03-29T01:31:39;95338.69;;;6.05;100.00
12178;BME280;6152;48.728;9.256;2024-03-29T01:34:05;95336.31;;;6.02;100.00
12178;BME280;6152;48.728;9.256;2024-03-29T01:36:32;95326.00;;;6.02;100.00
12178;BME280;6152;48.728;9.256;2024-03-29T01:38:58;95320.84;;;6.02;100.00
12178;BME280;6152;48.728;9.256;2024-03-29T01:41:24;95324.34;;;6.01;100.00
12178;BME280;6152;48.728;9.256;2024-03-29T01:43:54;95318.47;;;5.99;100.00
12178;BME280;6152;48.728;9.256;2024-03-29T01:46:22;95306.50;;;5.98;100.00
12178;BME280;6152;48.728;9.256;2024-03-29T01:48:53;95310.13;;;5.95;100.00
12178;BME280;6152;48.728;9.256;2024-03-29T01:51:21;95317.03;;;5.95;100.00
12178;BME280;6152;48.728;9.256;2024-03-29T01:53:48;95323.84;;;5.96;100.00
12178;BME280;6152;48.728;9.256;2024-03-29T01:56:16;95324.78;;;5.95;100.00
12178;BME280;6152;48.728;9.256;2024-03-29T01:58:43;95329.72;;;5.98;100.00
12178;BME280;6152;48.728;9.256;2024-03-29T02:01:12;95318.56;;;5.97;100.00
12178;BME280;6152;48.728;9.256;2024-03-29T02:03:39;95322.91;;;5.97;100.00
12178;BME280;6152;48.728;9.256;2024-03-29T02:06:06;95328.44;;;6.03;100.00
12178;BME280;6152;48.728;9.256;2024-03-29T02:08:34;95320.63;;;6.05;100.00
12178;BME280;6152;48.728;9.256;2024-03-29T02:11:00;95324.72;;;6.07;100.00
12178;BME280;6152;48.728;9.256;2024-03-29T02:13:26;95321.00;;;6.12;100.00
12178;BME280;6152;48.728;9.256;2024-03-29T02:15:52;95318.31;;;6.13;100.00
12178;BME280;6152;48.728;9.256;2024-03-29T02:18:18;95311.41;;;6.14;100.00
12178;BME280;6152;48.728;9.256;2024-03-29T02:20:45;95327.38;;;6.19;100.00
12178;BME280;6152;48.728;9.256;2024-03-29T02:23:13;95312.47;;;6.22;100.00
12178;BME280;6152;48.728;9.256;2024-03-29T02:25:40;95308.97;;;6.23;100.00
12178;BME280;6152;48.728;9.256;2024-03-29T02:28:06;95299.34;;;6.25;100.00
12178;BME280;6152;48.728;9.256;2024-03-29T02:30:32;95309.66;;;6.25;100.00
12178;BME280;6152;48.728;9.256;2024-03-29T02:32:59;95313.91;;;6.26;100.00
12178;BME280;6152;48.728;9.256;2024-03-29T02:35:26;95297.97;;;6.32;100.00
12178;BME280;6152;48.728;9.256;2024-03-29T02:37:52;95298.69;;;6.34;100.00
12178;BME280;6152;48.728;9.256;2024-03-29T02:40:19;95303.03;;;6.34;100.00
12178;BME280;6152;48.728;9.256;2024-03-29T02:42:47;95285.78;;;6.34;100.00
12178;BME280;6152;48.728;9.256;2024-03-29T02:45:13;95275.44;;;6.34;100.00
12178;BME280;6152;48.728;9.256;2024-03-29T02:47:39;95259.94;;;6.34;100.00
12178;BME280;6152;48.728;9.256;2024-03-29T02:50:08;95272.84;;;6.34;100.00
12178;BME280;6152;48.728;9.256;2024-03-29T02:52:34;95265.91;;;6.35;100.00
12178;BME280;6152;48.728;9.256;2024-03-29T02:55:01;95290.94;;;6.34;100.00
12178;BME280;6152;48.728;9.256;2024-03-29T02:57:27;95277.53;;;6.29;100.00
12178;BME280;6152;48.728;9.256;2024-03-29T02:59:53;95305.22;;;6.27;100.00
12178;BME280;6152;48.728;9.256;2024-03-29T03:02:19;95323.50;;;6.24;100.00
12178;BME280;6152;48.728;9.256;2024-03-29T03:04:45;95310.72;;;6.23;100.00
12178;BME280;6152;48.728;9.256;2024-03-29T03:07:11;95314.97;;;6.24;100.00
12178;BME280;6152;48.728;9.256;2024-03-29T03:09:56;95310.72;;;6.23;100.00
12178;BME280;6152;48.728;9.256;2024-03-29T03:12:41;95308.84;;;6.25;100.00
12178;BME280;6152;48.728;9.256;2024-03-29T03:15:07;95305.09;;;6.29;100.00
12178;BME280;6152;48.728;9.256;2024-03-29T03:17:33;95312.84;;;6.29;100.00
12178;BME280;6152;48.728;9.256;2024-03-29T03:19:59;95320.28;;;6.33;100.00
12178;BME280;6152;48.728;9.256;2024-03-29T03:22:25;95319.22;;;6.36;100.00
12178;BME280;6152;48.728;9.256;2024-03-29T03:24:51;95321.72;;;6.37;100.00
12178;BME280;6152;48.728;9.256;2024-03-29T03:27:18;95320.66;;;6.40;100.00
12178;BME280;6152;48.728;9.256;2024-03-29T03:29:44;95319.28;;;6.47;100.00
12178;BME280;6152;48.728;9.256;2024-03-29T03:32:10;95328.69;;;6.48;100.00
12178;BME280;6152;48.728;9.256;2024-03-29T03:34:36;95341.47;;;6.49;100.00
12178;BME280;6152;48.728;9.256;2024-03-29T03:37:03;95346.31;;;6.54;100.00
12178;BME280;6152;48.728;9.256;2024-03-29T03:39:29;95351.13;;;6.58;100.00
12178;BME280;6152;48.728;9.256;2024-03-29T03:41:55;95355.13;;;6.63;100.00
12178;BME280;6152;48.728;9.256;2024-03-29T03:44:21;95355.63;;;6.68;100.00
12178;BME280;6152;48.728;9.256;2024-03-29T03:46:50;95346.97;;;6.69;100.00
12178;BME280;6152;48.728;9.256;2024-03-29T03:49:17;95337.22;;;6.72;100.00
12178;BME280;6152;48.728;9.256;2024-03-29T03:51:43;95350.75;;;6.76;100.00
12178;BME280;6152;48.728;9.256;2024-03-29T03:54:10;95358.63;;;6.85;100.00
12178;BME280;6152;48.728;9.256;2024-03-29T03:56:36;95343.34;;;6.93;100.00
12178;BME280;6152;48.728;9.256;2024-03-29T03:59:02;95337.03;;;6.97;100.00
12178;BME280;6152;48.728;9.256;2024-03-29T04:01:28;95341.38;;;6.97;100.00
12178;BME280;6152;48.728;9.256;2024-03-29T04:03:54;95339.03;;;7.05;100.00
12178;BME280;6152;48.728;9.256;2024-03-29T04:06:20;95318.13;;;7.08;100.00
12178;BME280;6152;48.728;9.256;2024-03-29T04:08:47;95294.16;;;7.06;100.00
12178;BME280;6152;48.728;9.256;2024-03-29T04:11:13;95287.09;;;7.08;99.31
12178;BME280;6152;48.728;9.256;2024-03-29T04:13:39;95280.25;;;7.07;100.00
12178;BME280;6152;48.728;9.256;2024-03-29T04:16:07;95285.44;;;7.07;100.00
12178;BME280;6152;48.728;9.256;2024-03-29T04:18:34;95267.56;;;7.04;100.00
12178;BME280;6152;48.728;9.256;2024-03-29T04:21:01;95276.03;;;7.06;100.00
12178;BME280;6152;48.728;9.256;2024-03-29T04:23:28;95263.13;;;7.06;100.00
12178;BME280;6152;48.728;9.256;2024-03-29T04:25:55;95272.97;;;7.12;100.00
12178;BME280;6152;48.728;9.256;2024-03-29T04:28:22;95275.47;;;7.14;100.00
12178;BME280;6152;48.728;9.256;2024-03-29T04:30:59;95297.09;;;7.13;100.00
12178;BME280;6152;48.728;9.256;2024-03-29T04:33:26;95295.19;;;7.15;100.00
12178;BME280;6152;48.728;9.256;2024-03-29T04:35:57;95299.19;;;7.19;100.00
12178;BME280;6152;48.728;9.256;2024-03-29T04:38:24;95300.03;;;7.19;100.00
12178;BME280;6152;48.728;9.256;2024-03-29T04:40:52;95318.38;;;7.27;99.33
12178;BME280;6152;48.728;9.256;2024-03-29T04:43:19;95327.06;;;7.26;100.00
12178;BME280;6152;48.728;9.256;2024-03-29T04:45:45;95310.63;;;7.27;100.00
12178;BME280;6152;48.728;9.256;2024-03-29T04:48:12;95326.59;;;7.32;99.66
12178;BME280;6152;48.728;9.256;2024-03-29T04:50:38;95320.72;;;7.30;100.00
12178;BME280;6152;48.728;9.256;2024-03-29T04:53:05;95314.59;;;7.31;100.00
12178;BME280;6152;48.728;9.256;2024-03-29T04:55:31;95310.25;;;7.32;100.00
12178;BME280;6152;48.728;9.256;2024-03-29T04:57:57;95301.09;;;7.39;98.00
12178;BME280;6152;48.728;9.256;2024-03-29T05:00:23;95291.31;;;7.42;95.88
12178;BME280;6152;48.728;9.256;2024-03-29T05:02:50;95282.88;;;7.40;99.00
12178;BME280;6152;48.728;9.256;2024-03-29T05:05:16;95276.84;;;7.40;100.00
12178;BME280;6152;48.728;9.256;2024-03-29T05:07:42;95279.56;;;7.38;100.00
12178;BME280;6152;48.728;9.256;2024-03-29T05:10:09;95265.94;;;7.36;100.00
12178;BME280;6152;48.728;9.256;2024-03-29T05:12:36;95272.50;;;7.40;98.35
12178;BME280;6152;48.728;9.256;2024-03-29T05:15:03;95282.88;;;7.40;99.77
12178;BME280;6152;48.728;9.256;2024-03-29T05:17:29;95294.63;;;7.44;94.66
12178;BME280;6152;48.728;9.256;2024-03-29T05:19:55;95289.31;;;7.46;93.54
12178;BME280;6152;48.728;9.256;2024-03-29T05:22:22;95288.25;;;7.48;98.00
12178;BME280;6152;48.728;9.256;2024-03-29T05:24:49;95287.31;;;7.49;95.68
12178;BME280;6152;48.728;9.256;2024-03-29T05:27:15;95290.63;;;7.51;95.19
12178;BME280;6152;48.728;9.256;2024-03-29T05:29:42;95296.59;;;7.52;95.04
12178;BME280;6152;48.728;9.256;2024-03-29T05:32:08;95294.84;;;7.52;99.46
12178;BME280;6152;48.728;9.256;2024-03-29T05:34:34;95293.91;;;7.53;100.00
12178;BME280;6152;48.728;9.256;2024-03-29T05:37:00;95289.56;;;7.54;100.00
12178;BME280;6152;48.728;9.256;2024-03-29T05:39:26;95296.25;;;7.56;100.00
12178;BME280;6152;48.728;9.256;2024-03-29T05:41:52;95286.81;;;7.55;100.00
12178;BME280;6152;48.728;9.256;2024-03-29T05:44:19;95294.50;;;7.57;98.11
12178;BME280;6152;48.728;9.256;2024-03-29T05:46:45;95308.94;;;7.59;100.00
12178;BME280;6152;48.728;9.256;2024-03-29T05:49:11;95297.41;;;7.63;100.00
12178;BME280;6152;48.728;9.256;2024-03-29T05:51:37;95309.03;;;7.69;92.96
12178;BME280;6152;48.728;9.256;2024-03-29T05:54:03;95307.75;;;7.75;97.46
12178;BME280;6152;48.728;9.256;2024-03-29T05:56:30;95302.94;;;7.81;95.56
12178;BME280;6152;48.728;9.256;2024-03-29T05:58:56;95314.44;;;7.88;94.45
12178;BME280;6152;48.728;9.256;2024-03-29T06:01:22;95318.06;;;7.97;92.50
12178;BME280;6152;48.728;9.256;2024-03-29T06:03:49;95333.34;;;8.00;92.48
12178;BME280;6152;48.728;9.256;2024-03-29T06:06:20;95328.19;;;8.00;94.93
12178;BME280;6152;48.728;9.256;2024-03-29T06:08:50;95343.50;;;8.03;94.92
12178;BME280;6152;48.728;9.256;2024-03-29T06:11:16;95325.72;;;8.09;94.08
12178;BME280;6152;48.728;9.256;2024-03-29T06:13:42;95315.09;;;8.12;93.59
12178;BME280;6152;48.728;9.256;2024-03-29T06:16:29;95313.78;;;8.18;87.81
12178;BME280;6152;48.728;9.256;2024-03-29T06:19:16;95306.09;;;8.28;87.06
12178;BME280;6152;48.728;9.256;2024-03-29T06:21:42;95313.28;;;8.35;85.99
12178;BME280;6152;48.728;9.256;2024-03-29T06:24:09;95317.97;;;8.41;85.50
12178;BME280;6152;48.728;9.256;2024-03-29T06:26:40;95325.94;;;8.49;84.40
12178;BME280;6152;48.728;9.256;2024-03-29T06:29:07;95320.25;;;8.55;87.61
12178;BME280;6152;48.728;9.256;2024-03-29T06:31:37;95318.69;;;8.64;84.89
12178;BME280;6152;48.728;9.256;2024-03-29T06:34:03;95328.72;;;8.69;85.22
12178;BME280;6152;48.728;9.256;2024-03-29T06:36:29;95326.91;;;8.69;84.92
12178;BME280;6152;48.728;9.256;2024-03-29T06:38:57;95315.22;;;8.75;85.11
12178;BME280;6152;48.728;9.256;2024-03-29T06:41:23;95313.06;;;8.80;83.72
12178;BME280;6152;48.728;9.256;2024-03-29T06:43:49;95310.66;;;8.88;84.26
12178;BME280;6152;48.728;9.256;2024-03-29T06:46:15;95302.44;;;9.03;80.78
12178;BME280;6152;48.728;9.256;2024-03-29T06:48:42;95300.59;;;9.15;80.53
12178;BME280;6152;48.728;9.256;2024-03-29T06:51:08;95301.72;;;9.22;78.89
12178;BME280;6152;48.728;9.256;2024-03-29T06:53:34;95295.59;;;9.23;78.48
12178;BME280;6152;48.728;9.256;2024-03-29T06:56:03;95289.00;;;9.19;75.75
12178;BME280;6152;48.728;9.256;2024-03-29T06:58:29;95289.53;;;9.13;75.71
12178;BME280;6152;48.728;9.256;2024-03-29T07:00:55;95287.34;;;9.18;78.88
12178;BME280;6152;48.728;9.256;2024-03-29T07:03:21;95281.63;;;9.24;80.74
12178;BME280;6152;48.728;9.256;2024-03-29T07:05:48;95282.09;;;9.29;80.29
12178;BME280;6152;48.728;9.256;2024-03-29T07:08:14;95290.31;;;9.34;80.50
12178;BME280;6152;48.728;9.256;2024-03-29T07:10:40;95260.97;;;9.43;81.31
12178;BME280;6152;48.728;9.256;2024-03-29T07:13:07;95274.91;;;9.52;82.75
12178;BME280;6152;48.728;9.256;2024-03-29T07:15:34;95280.41;;;9.58;81.56
12178;BME280;6152;48.728;9.256;2024-03-29T07:18:03;95275.66;;;9.63;81.47
12178;BME280;6152;48.728;9.256;2024-03-29T07:20:29;95283.72;;;9.60;76.69
12178;BME280;6152;48.728;9.256;2024-03-29T07:22:55;95283.97;;;9.57;76.61
12178;BME280;6152;48.728;9.256;2024-03-29T07:25:22;95289.69;;;9.51;76.65
12178;BME280;6152;48.728;9.256;2024-03-29T07:27:48;95311.81;;;9.55;82.25
12178;BME280;6152;48.728;9.256;2024-03-29T07:30:16;95291.03;;;9.46;86.95
12178;BME280;6152;48.728;9.256;2024-03-29T07:32:42;95293.16;;;9.31;84.61
12178;BME280;6152;48.728;9.256;2024-03-29T07:35:08;95311.78;;;9.16;94.10
12178;BME280;6152;48.728;9.256;2024-03-29T07:37:35;95324.56;;;9.07;100.00
12178;BME280;6152;48.728;9.256;2024-03-29T07:40:01;95322.00;;;8.87;100.00
12178;BME280;6152;48.728;9.256;2024-03-29T07:42:27;95314.09;;;8.68;100.00
12178;BME280;6152;48.728;9.256;2024-03-29T07:44:53;95333.44;;;8.63;100.00
12178;BME280;6152;48.728;9.256;2024-03-29T07:47:19;95337.97;;;8.50;100.00
12178;BME280;6152;48.728;9.256;2024-03-29T07:49:47;95361.22;;;8.41;100.00
12178;BME280;6152;48.728;9.256;2024-03-29T07:52:14;95375.72;;;8.32;100.00
12178;BME280;6152;48.728;9.256;2024-03-29T07:54:42;95379.47;;;8.17;100.00
12178;BME280;6152;48.728;9.256;2024-03-29T07:57:09;95391.16;;;8.11;100.00
12178;BME280;6152;48.728;9.256;2024-03-29T07:59:35;95402.59;;;7.98;100.00
12178;BME280;6152;48.728;9.256;2024-03-29T08:02:01;95407.09;;;7.85;100.00
12178;BME280;6152;48.728;9.256;2024-03-29T08:04:28;95409.66;;;7.74;100.00
12178;BME280;6152;48.728;9.256;2024-03-29T08:06:54;95416.00;;;7.70;100.00
12178;BME280;6152;48.728;9.256;2024-03-29T08:09:20;95415.44;;;7.66;100.00
12178;BME280;6152;48.728;9.256;2024-03-29T08:11:47;95419.56;;;7.57;100.00
12178;BME280;6152;48.728;9.256;2024-03-29T08:14:13;95419.06;;;7.52;100.00
12178;BME280;6152;48.728;9.256;2024-03-29T08:16:39;95421.06;;;7.49;100.00
12178;BME280;6152;48.728;9.256;2024-03-29T08:19:06;95421.06;;;7.49;100.00
12178;BME280;6152;48.728;9.256;2024-03-29T08:21:32;95426.81;;;7.52;100.00
12178;BME280;6152;48.728;9.256;2024-03-29T08:23:58;95430.13;;;7.54;100.00
12178;BME280;6152;48.728;9.256;2024-03-29T08:26:26;95426.59;;;7.55;100.00
12178;BME280;6152;48.728;9.256;2024-03-29T08:28:54;95428.75;;;7.61;100.00
12178;BME280;6152;48.728;9.256;2024-03-29T08:31:21;95416.97;;;7.69;100.00
12178;BME280;6152;48.728;9.256;2024-03-29T08:33:47;95425.78;;;7.77;100.00
12178;BME280;6152;48.728;9.256;2024-03-29T08:36:14;95431.22;;;7.85;100.00
12178;BME280;6152;48.728;9.256;2024-03-29T08:38:40;95435.91;;;7.80;100.00
12178;BME280;6152;48.728;9.256;2024-03-29T08:41:09;95447.56;;;7.75;100.00
12178;BME280;6152;48.728;9.256;2024-03-29T08:43:35;95441.09;;;7.80;100.00
12178;BME280;6152;48.728;9.256;2024-03-29T08:46:02;95446.63;;;7.87;100.00
12178;BME280;6152;48.728;9.256;2024-03-29T08:48:28;95440.63;;;7.86;100.00
12178;BME280;6152;48.728;9.256;2024-03-29T08:50:54;95439.34;;;7.92;100.00
12178;BME280;6152;48.728;9.256;2024-03-29T08:53:20;95434.84;;;8.05;100.00
12178;BME280;6152;48.728;9.256;2024-03-29T08:55:49;95428.59;;;8.07;100.00
12178;BME280;6152;48.728;9.256;2024-03-29T08:58:15;95425.91;;;8.20;100.00
12178;BME280;6152;48.728;9.256;2024-03-29T09:00:42;95417.88;;;8.23;100.00
12178;BME280;6152;48.728;9.256;2024-03-29T09:03:08;95407.66;;;8.33;100.00
12178;BME280;6152;48.728;9.256;2024-03-29T09:05:34;95405.38;;;8.39;100.00
12178;BME280;6152;48.728;9.256;2024-03-29T09:08:00;95399.75;;;8.34;100.00
12178;BME280;6152;48.728;9.256;2024-03-29T09:10:26;95409.88;;;8.37;100.00
12178;BME280;6152;48.728;9.256;2024-03-29T09:12:53;95405.28;;;8.41;100.00
12178;BME280;6152;48.728;9.256;2024-03-29T09:15:19;95410.31;;;8.53;100.00
12178;BME280;6152;48.728;9.256;2024-03-29T09:17:46;95413.56;;;8.67;100.00
12178;BME280;6152;48.728;9.256;2024-03-29T09:20:13;95428.84;;;8.81;100.00
12178;BME280;6152;48.728;9.256;2024-03-29T09:22:39;95439.84;;;8.94;100.00
12178;BME280;6152;48.728;9.256;2024-03-29T09:25:06;95439.94;;;9.03;100.00
12178;BME280;6152;48.728;9.256;2024-03-29T09:27:35;95442.16;;;9.08;100.00
12178;BME280;6152;48.728;9.256;2024-03-29T09:30:03;95435.16;;;9.20;100.00
12178;BME280;6152;48.728;9.256;2024-03-29T09:32:31;95461.09;;;9.20;100.00
12178;BME280;6152;48.728;9.256;2024-03-29T09:34:58;95462.81;;;9.09;100.00
12178;BME280;6152;48.728;9.256;2024-03-29T09:37:24;95472.84;;;9.03;100.00
12178;BME280;6152;48.728;9.256;2024-03-29T09:39:51;95472.66;;;8.95;100.00
12178;BME280;6152;48.728;9.256;2024-03-29T09:42:17;95454.25;;;8.87;100.00
12178;BME280;6152;48.728;9.256;2024-03-29T09:44:47;95438.75;;;8.76;100.00
12178;BME280;6152;48.728;9.256;2024-03-29T09:47:15;95418.22;;;8.84;100.00
12178;BME280;6152;48.728;9.256;2024-03-29T09:49:44;95415.09;;;8.90;100.00
12178;BME280;6152;48.728;9.256;2024-03-29T09:52:12;95411.38;;;9.03;100.00
12178;BME280;6152;48.728;9.256;2024-03-29T09:54:38;95388.81;;;9.15;100.00
12178;BME280;6152;48.728;9.256;2024-03-29T09:57:05;95410.59;;;9.24;100.00
12178;BME280;6152;48.728;9.256;2024-03-29T09:59:31;95404.91;;;9.30;100.00
12178;BME280;6152;48.728;9.256;2024-03-29T10:01:59;95395.97;;;9.43;100.00
12178;BME280;6152;48.728;9.256;2024-03-29T10:04:26;95409.66;;;9.55;100.00
12178;BME280;6152;48.728;9.256;2024-03-29T10:06:53;95408.97;;;9.74;100.00
12178;BME280;6152;48.728;9.256;2024-03-29T10:09:21;95400.03;;;9.97;100.00
12178;BME280;6152;48.728;9.256;2024-03-29T10:11:48;95386.38;;;10.04;100.00
12178;BME280;6152;48.728;9.256;2024-03-29T10:14:14;95388.22;;;10.13;100.00
12178;BME280;6152;48.728;9.256;2024-03-29T10:16:41;95388.00;;;10.36;100.00
12178;BME280;6152;48.728;9.256;2024-03-29T10:19:08;95391.22;;;10.68;100.00
12178;BME280;6152;48.728;9.256;2024-03-29T10:21:36;95390.13;;;11.09;100.00
12178;BME280;6152;48.728;9.256;2024-03-29T10:24:13;95389.16;;;11.76;100.00
12178;BME280;6152;48.728;9.256;2024-03-29T10:26:40;95385.56;;;12.86;100.00
12178;BME280;6152;48.728;9.256;2024-03-29T10:29:06;95382.59;;;14.19;100.00
12178;BME280;6152;48.728;9.256;2024-03-29T10:31:36;95381.34;;;14.97;100.00
12178;BME280;6152;48.728;9.256;2024-03-29T10:34:05;95364.94;;;14.71;100.00
12178;BME280;6152;48.728;9.256;2024-03-29T10:36:32;95368.81;;;14.17;100.00
12178;BME280;6152;48.728;9.256;2024-03-29T10:39:02;95375.59;;;13.94;100.00
12178;BME280;6152;48.728;9.256;2024-03-29T10:41:38;95380.59;;;13.53;100.00
12178;BME280;6152;48.728;9.256;2024-03-29T10:44:05;95384.38;;;13.33;100.00
12178;BME280;6152;48.728;9.256;2024-03-29T10:46:35;95390.94;;;13.37;100.00
12178;BME280;6152;48.728;9.256;2024-03-29T10:49:03;95384.16;;;13.52;100.00
12178;BME280;6152;48.728;9.256;2024-03-29T10:51:32;95374.75;;;13.59;100.00
12178;BME280;6152;48.728;9.256;2024-03-29T10:53:59;95382.84;;;13.74;100.00
12178;BME280;6152;48.728;9.256;2024-03-29T10:56:27;95385.19;;;13.59;100.00
12178;BME280;6152;48.728;9.256;2024-03-29T10:58:57;95358.03;;;13.27;100.00
12178;BME280;6152;48.728;9.256;2024-03-29T11:01:27;95368.84;;;13.14;100.00
12178;BME280;6152;48.728;9.256;2024-03-29T11:04:00;95370.03;;;13.37;100.00
12178;BME280;6152;48.728;9.256;2024-03-29T11:06:29;95364.16;;;13.69;100.00
12178;BME280;6152;48.728;9.256;2024-03-29T11:08:57;95372.63;;;13.89;100.00
12178;BME280;6152;48.728;9.256;2024-03-29T11:11:25;95372.75;;;14.13;100.00
12178;BME280;6152;48.728;9.256;2024-03-29T11:14:05;95364.59;;;14.24;100.00
12178;BME280;6152;48.728;9.256;2024-03-29T11:16:33;95369.53;;;14.27;100.00
12178;BME280;6152;48.728;9.256;2024-03-29T11:19:00;95367.88;;;13.84;100.00
12178;BME280;6152;48.728;9.256;2024-03-29T11:21:31;95358.88;;;13.87;100.00
12178;BME280;6152;48.728;9.256;2024-03-29T11:23:58;95359.66;;;13.79;100.00
12178;BME280;6152;48.728;9.256;2024-03-29T11:26:29;95354.53;;;14.03;100.00
12178;BME280;6152;48.728;9.256;2024-03-29T11:28:55;95354.56;;;14.37;100.00
12178;BME280;6152;48.728;9.256;2024-03-29T11:31:25;95347.72;;;14.52;100.00
12178;BME280;6152;48.728;9.256;2024-03-29T11:33:51;95350.34;;;14.60;100.00
12178;BME280;6152;48.728;9.256;2024-03-29T11:36:29;95357.53;;;14.58;100.00
12178;BME280;6152;48.728;9.256;2024-03-29T11:38:57;95344.44;;;14.58;100.00
12178;BME280;6152;48.728;9.256;2024-03-29T11:41:27;95350.84;;;14.64;100.00
12178;BME280;6152;48.728;9.256;2024-03-29T11:43:56;95356.25;;;14.54;100.00
12178;BME280;6152;48.728;9.256;2024-03-29T11:46:23;95342.47;;;14.52;100.00
12178;BME280;6152;48.728;9.256;2024-03-29T11:48:50;95345.09;;;14.52;100.00
12178;BME280;6152;48.728;9.256;2024-03-29T11:51:19;95350.00;;;14.47;100.00
12178;BME280;6152;48.728;9.256;2024-03-29T11:53:48;95364.38;;;14.43;100.00
12178;BME280;6152;48.728;9.256;2024-03-29T11:56:14;95376.50;;;14.44;100.00
12178;BME280;6152;48.728;9.256;2024-03-29T11:58:41;95385.31;;;14.43;100.00
12178;BME280;6152;48.728;9.256;2024-03-29T12:01:08;95394.13;;;14.42;100.00
12178;BME280;6152;48.728;9.256;2024-03-29T12:03:38;95390.91;;;14.56;100.00
12178;BME280;6152;48.728;9.256;2024-03-29T12:06:06;95392.91;;;14.71;100.00
12178;BME280;6152;48.728;9.256;2024-03-29T12:08:34;95395.38;;;14.80;100.00
12178;BME280;6152;48.728;9.256;2024-03-29T12:11:01;95397.41;;;15.02;100.00
12178;BME280;6152;48.728;9.256;2024-03-29T12:13:29;95384.31;;;15.27;100.00
12178;BME280;6152;48.728;9.256;2024-03-29T12:15:56;95376.63;;;15.49;100.00
12178;BME280;6152;48.728;9.256;2024-03-29T12:18:23;95373.97;;;15.82;100.00
12178;BME280;6152;48.728;9.256;2024-03-29T12:20:50;95366.31;;;16.19;100.00
12178;BME280;6152;48.728;9.256;2024-03-29T12:23:18;95363.56;;;16.43;100.00
12178;BME280;6152;48.728;9.256;2024-03-29T12:25:45;95363.75;;;16.73;100.00
12178;BME280;6152;48.728;9.256;2024-03-29T12:28:12;95350.56;;;17.03;96.76
12178;BME280;6152;48.728;9.256;2024-03-29T12:30:42;95354.50;;;17.30;92.67
12178;BME280;6152;48.728;9.256;2024-03-29T12:33:13;95360.94;;;17.42;88.79
12178;BME280;6152;48.728;9.256;2024-03-29T12:35:42;95351.81;;;17.53;84.67
12178;BME280;6152;48.728;9.256;2024-03-29T12:38:12;95345.34;;;17.93;83.02
12178;BME280;6152;48.728;9.256;2024-03-29T12:40:42;95354.41;;;18.34;75.29
12178;BME280;6152;48.728;9.256;2024-03-29T12:43:15;95354.50;;;18.55;72.34
12178;BME280;6152;48.728;9.256;2024-03-29T12:45:43;95354.38;;;18.78;73.36
12178;BME280;6152;48.728;9.256;2024-03-29T12:48:15;95361.84;;;18.45;72.59
12178;BME280;6152;48.728;9.256;2024-03-29T12:50:43;95358.31;;;18.67;76.15
12178;BME280;6152;48.728;9.256;2024-03-29T12:53:11;95353.94;;;18.75;70.04
12178;BME280;6152;48.728;9.256;2024-03-29T12:55:42;95367.59;;;18.63;73.14
12178;BME280;6152;48.728;9.256;2024-03-29T12:58:15;95368.84;;;18.38;72.97
12178;BME280;6152;48.728;9.256;2024-03-29T13:00:42;95382.72;;;17.74;75.70
12178;BME280;6152;48.728;9.256;2024-03-29T13:03:09;95375.38;;;17.46;77.64
12178;BME280;6152;48.728;9.256;2024-03-29T13:05:36;95352.59;;;17.76;78.50
12178;BME280;6152;48.728;9.256;2024-03-29T13:08:11;95366.94;;;17.36;77.09
12178;BME280;6152;48.728;9.256;2024-03-29T13:10:38;95373.66;;;17.61;80.46